sensor_id;sensor_type;location;lat;lon;timestamp;P1;P2;P0
64114;PMS5003;62188;35.640;139.748;2023-09-19T00:01:39;3;3;
64114;PMS5003;62188;35.640;139.748;2023-09-19T00:04:04;4;3;
64114;PMS5003;62188;35.640;139.748;2023-09-19T00:06:29;7;6;
64114;PMS5003;62188;35.640;139.748;2023-09-19T00:08:54;3;3;
64114;PMS5003;62188;35.640;139.748;2023-09-19T00:11:20;3;2;
64114;PMS5003;62188;35.640;139.748;2023-09-19T00:13:45;4;3;
64114;PMS5003;62188;35.640;139.748;2023-09-19T00:16:10;3;3;
64114;PMS5003;62188;35.640;139.748;2023-09-19T00:18:35;5;4;
64114;PMS5003;62188;35.640;139.748;2023-09-19T00:21:00;3;3;
64114;PMS5003;62188;35.640;139.748;2023-09-19T00:23:26;3;3;
64114;PMS5003;62188;35.640;139.748;2023-09-19T00:25:51;4;4;
64114;PMS5003;62188;35.640;139.748;2023-09-19T00:28:16;5;4;
64114;PMS5003;62188;35.640;139.748;2023-09-19T00:30:42;4;4;
64114;PMS5003;62188;35.640;139.748;2023-09-19T00:33:07;4;4;
64114;PMS5003;62188;35.640;139.748;2023-09-19T00:35:32;5;5;
64114;PMS5003;62188;35.640;139.748;2023-09-19T00:37:57;8;6;
64114;PMS5003;62188;35.640;139.748;2023-09-19T00:40:23;6;6;
64114;PMS5003;62188;35.640;139.748;2023-09-19T00:42:48;6;4;
64114;PMS5003;62188;35.640;139.748;2023-09-19T00:45:14;3;2;
64114;PMS5003;62188;35.640;139.748;2023-09-19T00:47:38;4;4;
64114;PMS5003;62188;35.640;139.748;2023-09-19T00:50:04;4;3;
64114;PMS5003;62188;35.640;139.748;2023-09-19T00:52:28;3;3;
64114;PMS5003;62188;35.640;139.748;2023-09-19T00:54:54;3;3;
64114;PMS5003;62188;35.640;139.748;2023-09-19T00:57:19;3;3;
64114;PMS5003;62188;35.640;139.748;2023-09-19T00:59:44;3;3;
64114;PMS5003;62188;35.640;139.748;2023-09-19T01:02:09;3;3;
64114;PMS5003;62188;35.640;139.748;2023-09-19T01:04:35;3;3;
64114;PMS5003;62188;35.640;139.748;2023-09-19T01:07:00;2;2;
64114;PMS5003;62188;35.640;139.748;2023-09-19T01:09:25;1;1;
64114;PMS5003;62188;35.640;139.748;2023-09-19T01:11:50;1;1;
64114;PMS5003;62188;35.640;139.748;2023-09-19T01:14:27;1;1;
64114;PMS5003;62188;35.640;139.748;2023-09-19T01:16:42;2;2;
64114;PMS5003;62188;35.640;139.748;2023-09-19T01:21:33;2;2;
64114;PMS5003;62188;35.640;139.748;2023-09-19T01:31:12;1;1;
64114;PMS5003;62188;35.640;139.748;2023-09-19T01:36:03;2;2;
64114;PMS5003;62188;35.640;139.748;2023-09-19T01:38:28;3;3;
64114;PMS5003;62188;35.640;139.748;2023-09-19T01:41:03;2;2;
64114;PMS5003;62188;35.640;139.748;2023-09-19T01:43:20;2;2;
64114;PMS5003;62188;35.640;139.748;2023-09-19T01:45:46;2;2;
64114;PMS5003;62188;35.640;139.748;2023-09-19T01:48:13;2;2;
64114;PMS5003;62188;35.640;139.748;2023-09-19T01:50:42;4;4;
64114;PMS5003;62188;35.640;139.748;2023-09-19T01:53:02;1;1;
64114;PMS5003;62188;35.640;139.748;2023-09-19T01:55:25;2;2;
64114;PMS5003;62188;35.640;139.748;2023-09-19T01:57:54;2;2;
64114;PMS5003;62188;35.640;139.748;2023-09-19T02:00:15;2;2;
64114;PMS5003;62188;35.640;139.748;2023-09-19T02:02:42;3;3;
64114;PMS5003;62188;35.640;139.748;2023-09-19T02:05:05;3;3;
64114;PMS5003;62188;35.640;139.748;2023-09-19T02:07:31;2;2;
64114;PMS5003;62188;35.640;139.748;2023-09-19T02:09:56;1;1;
64114;PMS5003;62188;35.640;139.748;2023-09-19T02:12:21;3;3;
64114;PMS5003;62188;35.640;139.748;2023-09-19T02:14:46;2;2;
64114;PMS5003;62188;35.640;139.748;2023-09-19T02:17:11;4;3;
64114;PMS5003;62188;35.640;139.748;2023-09-19T02:19:37;0;0;
64114;PMS5003;62188;35.640;139.748;2023-09-19T02:22:02;1;1;
64114;PMS5003;62188;35.640;139.748;2023-09-19T02:24:28;3;3;
64114;PMS5003;62188;35.640;139.748;2023-09-19T02:26:52;3;3;
64114;PMS5003;62188;35.640;139.748;2023-09-19T02:29:18;3;3;
64114;PMS5003;62188;35.640;139.748;2023-09-19T02:31:43;3;3;
64114;PMS5003;62188;35.640;139.748;2023-09-19T02:34:08;2;2;
64114;PMS5003;62188;35.640;139.748;2023-09-19T02:36:33;5;4;
64114;PMS5003;62188;35.640;139.748;2023-09-19T02:38:59;3;2;
64114;PMS5003;62188;35.640;139.748;2023-09-19T02:41:24;2;2;
64114;PMS5003;62188;35.640;139.748;2023-09-19T02:43:49;3;2;
64114;PMS5003;62188;35.640;139.748;2023-09-19T02:46:14;4;4;
64114;PMS5003;62188;35.640;139.748;2023-09-19T02:48:40;4;3;
64114;PMS5003;62188;35.640;139.748;2023-09-19T02:51:05;2;2;
64114;PMS5003;62188;35.640;139.748;2023-09-19T02:53:30;3;3;
64114;PMS5003;62188;35.640;139.748;2023-09-19T02:55:55;3;3;
64114;PMS5003;62188;35.640;139.748;2023-09-19T02:58:21;3;3;
64114;PMS5003;62188;35.640;139.748;2023-09-19T03:00:46;3;3;
64114;PMS5003;62188;35.640;139.748;2023-09-19T03:03:11;3;3;
64114;PMS5003;62188;35.640;139.748;2023-09-19T03:05:36;2;2;
64114;PMS5003;62188;35.640;139.748;2023-09-19T03:08:02;3;3;
64114;PMS5003;62188;35.640;139.748;2023-09-19T03:10:27;3;3;
64114;PMS5003;62188;35.640;139.748;2023-09-19T03:12:52;1;1;
64114;PMS5003;62188;35.640;139.748;2023-09-19T03:15:17;3;3;
64114;PMS5003;62188;35.640;139.748;2023-09-19T03:17:43;2;2;
64114;PMS5003;62188;35.640;139.748;2023-09-19T03:20:08;2;2;
64114;PMS5003;62188;35.640;139.748;2023-09-19T03:22:33;3;3;
64114;PMS5003;62188;35.640;139.748;2023-09-19T03:24:58;3;3;
64114;PMS5003;62188;35.640;139.748;2023-09-19T03:27:23;3;3;
64114;PMS5003;62188;35.640;139.748;2023-09-19T03:29:48;3;3;
64114;PMS5003;62188;35.640;139.748;2023-09-19T03:32:14;4;2;
64114;PMS5003;62188;35.640;139.748;2023-09-19T03:34:39;2;2;
64114;PMS5003;62188;35.640;139.748;2023-09-19T03:37:04;2;2;
64114;PMS5003;62188;35.640;139.748;2023-09-19T03:39:29;4;4;
64114;PMS5003;62188;35.640;139.748;2023-09-19T03:41:55;1;1;
64114;PMS5003;62188;35.640;139.748;2023-09-19T03:44:20;2;2;
64114;PMS5003;62188;35.640;139.748;2023-09-19T03:46:45;3;3;
64114;PMS5003;62188;35.640;139.748;2023-09-19T03:49:10;3;3;
64114;PMS5003;62188;35.640;139.748;2023-09-19T03:51:36;2;2;
64114;PMS5003;62188;35.640;139.748;2023-09-19T03:54:01;3;3;
64114;PMS5003;62188;35.640;139.748;2023-09-19T03:56:26;3;2;
64114;PMS5003;62188;35.640;139.748;2023-09-19T03:58:51;3;3;
64114;PMS5003;62188;35.640;139.748;2023-09-19T04:01:16;2;2;
64114;PMS5003;62188;35.640;139.748;2023-09-19T04:03:42;2;2;
64114;PMS5003;62188;35.640;139.748;2023-09-19T04:06:07;3;3;
64114;PMS5003;62188;35.640;139.748;2023-09-19T04:08:32;2;2;
64114;PMS5003;62188;35.640;139.748;2023-09-19T04:10:58;1;1;
64114;PMS5003;62188;35.640;139.748;2023-09-19T04:13:23;4;3;
64114;PMS5003;62188;35.640;139.748;2023-09-19T04:15:48;3;3;
64114;PMS5003;62188;35.640;139.748;2023-09-19T04:18:13;3;3;
64114;PMS5003;62188;35.640;139.748;2023-09-19T04:20:38;4;4;
64114;PMS5003;62188;35.640;139.748;2023-09-19T04:23:04;2;2;
64114;PMS5003;62188;35.640;139.748;2023-09-19T04:25:29;6;5;
64114;PMS5003;62188;35.640;139.748;2023-09-19T04:27:55;2;1;
64114;PMS5003;62188;35.640;139.748;2023-09-19T04:30:20;2;2;
64114;PMS5003;62188;35.640;139.748;2023-09-19T04:32:45;2;2;
64114;PMS5003;62188;35.640;139.748;2023-09-19T04:35:10;2;2;
64114;PMS5003;62188;35.640;139.748;2023-09-19T04:37:37;2;2;
64114;PMS5003;62188;35.640;139.748;2023-09-19T04:40:01;3;3;
64114;PMS5003;62188;35.640;139.748;2023-09-19T04:42:26;3;3;
64114;PMS5003;62188;35.640;139.748;2023-09-19T04:44:51;4;3;
64114;PMS5003;62188;35.640;139.748;2023-09-19T04:47:16;3;3;
64114;PMS5003;62188;35.640;139.748;2023-09-19T04:49:42;2;2;
64114;PMS5003;62188;35.640;139.748;2023-09-19T04:52:07;2;2;
64114;PMS5003;62188;35.640;139.748;2023-09-19T04:54:32;3;3;
64114;PMS5003;62188;35.640;139.748;2023-09-19T04:56:57;3;3;
64114;PMS5003;62188;35.640;139.748;2023-09-19T04:59:23;4;4;
64114;PMS5003;62188;35.640;139.748;2023-09-19T05:01:48;3;3;
64114;PMS5003;62188;35.640;139.748;2023-09-19T05:04:13;3;3;
64114;PMS5003;62188;35.640;139.748;2023-09-19T05:06:38;3;3;
64114;PMS5003;62188;35.640;139.748;2023-09-19T05:09:04;4;3;
64114;PMS5003;62188;35.640;139.748;2023-09-19T05:11:29;3;3;
64114;PMS5003;62188;35.640;139.748;2023-09-19T05:13:54;4;4;
64114;PMS5003;62188;35.640;139.748;2023-09-19T05:16:20;3;3;
64114;PMS5003;62188;35.640;139.748;2023-09-19T05:18:46;4;3;
64114;PMS5003;62188;35.640;139.748;2023-09-19T05:21:13;3;3;
64114;PMS5003;62188;35.640;139.748;2023-09-19T05:23:36;3;3;
64114;PMS5003;62188;35.640;139.748;2023-09-19T05:26:01;3;3;
64114;PMS5003;62188;35.640;139.748;2023-09-19T05:28:26;4;4;
64114;PMS5003;62188;35.640;139.748;2023-09-19T05:30:51;4;3;
64114;PMS5003;62188;35.640;139.748;2023-09-19T05:33:17;3;3;
64114;PMS5003;62188;35.640;139.748;2023-09-19T05:35:42;4;4;
64114;PMS5003;62188;35.640;139.748;2023-09-19T05:38:07;4;4;
64114;PMS5003;62188;35.640;139.748;2023-09-19T05:40:32;5;4;
64114;PMS5003;62188;35.640;139.748;2023-09-19T05:42:58;4;4;
64114;PMS5003;62188;35.640;139.748;2023-09-19T05:45:23;5;3;
64114;PMS5003;62188;35.640;139.748;2023-09-19T05:47:49;3;3;
64114;PMS5003;62188;35.640;139.748;2023-09-19T05:50:14;4;4;
64114;PMS5003;62188;35.640;139.748;2023-09-19T05:52:39;4;3;
64114;PMS5003;62188;35.640;139.748;2023-09-19T05:55:04;4;3;
64114;PMS5003;62188;35.640;139.748;2023-09-19T05:57:29;4;3;
64114;PMS5003;62188;35.640;139.748;2023-09-19T05:59:55;5;5;
64114;PMS5003;62188;35.640;139.748;2023-09-19T06:02:20;3;3;
64114;PMS5003;62188;35.640;139.748;2023-09-19T06:04:45;5;5;
64114;PMS5003;62188;35.640;139.748;2023-09-19T06:07:10;6;4;
64114;PMS5003;62188;35.640;139.748;2023-09-19T06:09:36;4;4;
64114;PMS5003;62188;35.640;139.748;2023-09-19T06:12:01;4;4;
64114;PMS5003;62188;35.640;139.748;2023-09-19T06:14:26;2;2;
64114;PMS5003;62188;35.640;139.748;2023-09-19T06:16:51;5;5;
64114;PMS5003;62188;35.640;139.748;2023-09-19T06:19:17;3;3;
64114;PMS5003;62188;35.640;139.748;2023-09-19T06:21:42;5;5;
64114;PMS5003;62188;35.640;139.748;2023-09-19T06:24:07;3;3;
64114;PMS5003;62188;35.640;139.748;2023-09-19T06:26:33;5;5;
64114;PMS5003;62188;35.640;139.748;2023-09-19T06:28:58;4;4;
64114;PMS5003;62188;35.640;139.748;2023-09-19T06:31:24;4;4;
64114;PMS5003;62188;35.640;139.748;2023-09-19T06:33:48;4;4;
64114;PMS5003;62188;35.640;139.748;2023-09-19T06:36:14;4;4;
64114;PMS5003;62188;35.640;139.748;2023-09-19T06:38:39;5;5;
64114;PMS5003;62188;35.640;139.748;2023-09-19T06:41:04;4;4;
64114;PMS5003;62188;35.640;139.748;2023-09-19T06:43:30;5;5;
64114;PMS5003;62188;35.640;139.748;2023-09-19T06:45:55;3;2;
64114;PMS5003;62188;35.640;139.748;2023-09-19T06:48:20;5;5;
64114;PMS5003;62188;35.640;139.748;2023-09-19T06:50:45;5;5;
64114;PMS5003;62188;35.640;139.748;2023-09-19T06:53:10;5;4;
64114;PMS5003;62188;35.640;139.748;2023-09-19T06:55:36;4;4;
64114;PMS5003;62188;35.640;139.748;2023-09-19T06:58:01;5;5;
64114;PMS5003;62188;35.640;139.748;2023-09-19T07:00:26;5;5;
64114;PMS5003;62188;35.640;139.748;2023-09-19T07:02:56;5;5;
64114;PMS5003;62188;35.640;139.748;2023-09-19T07:05:17;5;5;
64114;PMS5003;62188;35.640;139.748;2023-09-19T07:07:42;5;5;
64114;PMS5003;62188;35.640;139.748;2023-09-19T07:10:08;6;5;
64114;PMS5003;62188;35.640;139.748;2023-09-19T07:12:33;5;5;
64114;PMS5003;62188;35.640;139.748;2023-09-19T07:14:58;6;5;
64114;PMS5003;62188;35.640;139.748;2023-09-19T07:17:23;7;6;
64114;PMS5003;62188;35.640;139.748;2023-09-19T07:19:49;8;7;
64114;PMS5003;62188;35.640;139.748;2023-09-19T07:22:14;7;7;
64114;PMS5003;62188;35.640;139.748;2023-09-19T07:24:39;6;5;
64114;PMS5003;62188;35.640;139.748;2023-09-19T07:27:04;6;6;
64114;PMS5003;62188;35.640;139.748;2023-09-19T07:29:30;7;4;
64114;PMS5003;62188;35.640;139.748;2023-09-19T07:31:55;7;6;
64114;PMS5003;62188;35.640;139.748;2023-09-19T07:34:20;7;6;
64114;PMS5003;62188;35.640;139.748;2023-09-19T07:36:46;8;8;
64114;PMS5003;62188;35.640;139.748;2023-09-19T07:39:11;8;8;
64114;PMS5003;62188;35.640;139.748;2023-09-19T07:41:36;8;8;
64114;PMS5003;62188;35.640;139.748;2023-09-19T07:44:02;6;6;
64114;PMS5003;62188;35.640;139.748;2023-09-19T07:46:27;7;6;
64114;PMS5003;62188;35.640;139.748;2023-09-19T07:48:52;9;8;
64114;PMS5003;62188;35.640;139.748;2023-09-19T07:51:17;7;7;
64114;PMS5003;62188;35.640;139.748;2023-09-19T07:53:43;8;8;
64114;PMS5003;62188;35.640;139.748;2023-09-19T07:56:08;10;10;
64114;PMS5003;62188;35.640;139.748;2023-09-19T07:58:33;7;7;
64114;PMS5003;62188;35.640;139.748;2023-09-19T08:01:02;9;8;
64114;PMS5003;62188;35.640;139.748;2023-09-19T08:03:24;8;8;
64114;PMS5003;62188;35.640;139.748;2023-09-19T08:05:49;10;10;
64114;PMS5003;62188;35.640;139.748;2023-09-19T08:08:14;9;9;
64114;PMS5003;62188;35.640;139.748;2023-09-19T08:10:39;9;9;
64114;PMS5003;62188;35.640;139.748;2023-09-19T08:13:05;12;12;
64114;PMS5003;62188;35.640;139.748;2023-09-19T08:15:30;13;10;
64114;PMS5003;62188;35.640;139.748;2023-09-19T08:17:55;10;10;
64114;PMS5003;62188;35.640;139.748;2023-09-19T08:20:21;12;11;
64114;PMS5003;62188;35.640;139.748;2023-09-19T08:22:47;13;13;
64114;PMS5003;62188;35.640;139.748;2023-09-19T08:25:12;10;10;
64114;PMS5003;62188;35.640;139.748;2023-09-19T08:27:37;13;13;
64114;PMS5003;62188;35.640;139.748;2023-09-19T08:30:02;14;13;
64114;PMS5003;62188;35.640;139.748;2023-09-19T08:32:28;13;13;
64114;PMS5003;62188;35.640;139.748;2023-09-19T08:34:53;12;11;
64114;PMS5003;62188;35.640;139.748;2023-09-19T08:37:18;12;12;
64114;PMS5003;62188;35.640;139.748;2023-09-19T08:39:44;12;12;
64114;PMS5003;62188;35.640;139.748;2023-09-19T08:42:09;16;15;
64114;PMS5003;62188;35.640;139.748;2023-09-19T08:44:36;15;14;
64114;PMS5003;62188;35.640;139.748;2023-09-19T08:47:00;17;15;
64114;PMS5003;62188;35.640;139.748;2023-09-19T08:49:39;16;15;
64114;PMS5003;62188;35.640;139.748;2023-09-19T08:51:51;14;13;
64114;PMS5003;62188;35.640;139.748;2023-09-19T08:54:19;15;14;
64114;PMS5003;62188;35.640;139.748;2023-09-19T08:56:41;15;15;
64114;PMS5003;62188;35.640;139.748;2023-09-19T08:59:06;17;14;
64114;PMS5003;62188;35.640;139.748;2023-09-19T09:01:32;15;14;
64114;PMS5003;62188;35.640;139.748;2023-09-19T09:03:57;18;16;
64114;PMS5003;62188;35.640;139.748;2023-09-19T09:06:23;16;15;
64114;PMS5003;62188;35.640;139.748;2023-09-19T09:08:48;19;16;
64114;PMS5003;62188;35.640;139.748;2023-09-19T09:11:14;21;20;
64114;PMS5003;62188;35.640;139.748;2023-09-19T09:13:39;18;17;
64114;PMS5003;62188;35.640;139.748;2023-09-19T09:16:05;14;14;
64114;PMS5003;62188;35.640;139.748;2023-09-19T09:18:30;17;17;
64114;PMS5003;62188;35.640;139.748;2023-09-19T09:20:55;20;18;
64114;PMS5003;62188;35.640;139.748;2023-09-19T09:23:21;15;15;
64114;PMS5003;62188;35.640;139.748;2023-09-19T09:25:48;17;17;
64114;PMS5003;62188;35.640;139.748;2023-09-19T09:28:11;42;42;
64114;PMS5003;62188;35.640;139.748;2023-09-19T09:30:36;19;19;
64114;PMS5003;62188;35.640;139.748;2023-09-19T09:33:09;20;19;
64114;PMS5003;62188;35.640;139.748;2023-09-19T09:35:27;17;17;
64114;PMS5003;62188;35.640;139.748;2023-09-19T09:40:18;21;17;
64114;PMS5003;62188;35.640;139.748;2023-09-19T09:42:43;18;17;
64114;PMS5003;62188;35.640;139.748;2023-09-19T09:45:15;18;17;
64114;PMS5003;62188;35.640;139.748;2023-09-19T09:49:59;16;16;
64114;PMS5003;62188;35.640;139.748;2023-09-19T09:52:24;18;18;
64114;PMS5003;62188;35.640;139.748;2023-09-19T09:54:59;20;20;
64114;PMS5003;62188;35.640;139.748;2023-09-19T09:57:16;19;19;
64114;PMS5003;62188;35.640;139.748;2023-09-19T09:59:46;19;18;
64114;PMS5003;62188;35.640;139.748;2023-09-19T10:02:07;19;19;
64114;PMS5003;62188;35.640;139.748;2023-09-19T10:04:32;18;16;
64114;PMS5003;62188;35.640;139.748;2023-09-19T10:06:57;20;19;
64114;PMS5003;62188;35.640;139.748;2023-09-19T10:09:22;17;17;
64114;PMS5003;62188;35.640;139.748;2023-09-19T10:11:49;18;17;
64114;PMS5003;62188;35.640;139.748;2023-09-19T10:14:14;18;17;
64114;PMS5003;62188;35.640;139.748;2023-09-19T10:16:41;17;17;
64114;PMS5003;62188;35.640;139.748;2023-09-19T10:19:04;19;18;
64114;PMS5003;62188;35.640;139.748;2023-09-19T10:21:29;18;18;
64114;PMS5003;62188;35.640;139.748;2023-09-19T10:23:54;22;20;
64114;PMS5003;62188;35.640;139.748;2023-09-19T10:26:20;21;20;
64114;PMS5003;62188;35.640;139.748;2023-09-19T10:28:46;25;22;
64114;PMS5003;62188;35.640;139.748;2023-09-19T10:31:10;20;18;
64114;PMS5003;62188;35.640;139.748;2023-09-19T10:33:36;18;18;
64114;PMS5003;62188;35.640;139.748;2023-09-19T10:36:01;19;19;
64114;PMS5003;62188;35.640;139.748;2023-09-19T10:38:27;23;21;
64114;PMS5003;62188;35.640;139.748;2023-09-19T10:40:53;20;20;
64114;PMS5003;62188;35.640;139.748;2023-09-19T10:43:18;20;20;
64114;PMS5003;62188;35.640;139.748;2023-09-19T10:45:43;20;20;
64114;PMS5003;62188;35.640;139.748;2023-09-19T10:48:09;23;23;
64114;PMS5003;62188;35.640;139.748;2023-09-19T10:50:40;23;21;
64114;PMS5003;62188;35.640;139.748;2023-09-19T10:53:00;23;22;
64114;PMS5003;62188;35.640;139.748;2023-09-19T10:55:25;18;17;
64114;PMS5003;62188;35.640;139.748;2023-09-19T10:57:51;20;19;
64114;PMS5003;62188;35.640;139.748;2023-09-19T11:00:16;21;19;
64114;PMS5003;62188;35.640;139.748;2023-09-19T11:02:41;19;18;
64114;PMS5003;62188;35.640;139.748;2023-09-19T11:07:31;15;15;
64114;PMS5003;62188;35.640;139.748;2023-09-19T11:09:57;17;16;
64114;PMS5003;62188;35.640;139.748;2023-09-19T11:14:48;19;19;
64114;PMS5003;62188;35.640;139.748;2023-09-19T11:22:04;19;19;
64114;PMS5003;62188;35.640;139.748;2023-09-19T11:24:30;18;18;
64114;PMS5003;62188;35.640;139.748;2023-09-19T11:29:25;18;17;
64114;PMS5003;62188;35.640;139.748;2023-09-19T11:31:45;18;18;
64114;PMS5003;62188;35.640;139.748;2023-09-19T11:36:35;17;17;
64114;PMS5003;62188;35.640;139.748;2023-09-19T11:39:01;16;16;
64114;PMS5003;62188;35.640;139.748;2023-09-19T11:43:52;18;16;
64114;PMS5003;62188;35.640;139.748;2023-09-19T11:46:17;15;15;
64114;PMS5003;62188;35.640;139.748;2023-09-19T11:48:43;16;16;
64114;PMS5003;62188;35.640;139.748;2023-09-19T11:51:11;18;17;
64114;PMS5003;62188;35.640;139.748;2023-09-19T11:53:33;18;18;
64114;PMS5003;62188;35.640;139.748;2023-09-19T11:55:58;17;16;
64114;PMS5003;62188;35.640;139.748;2023-09-19T11:58:24;18;18;
64114;PMS5003;62188;35.640;139.748;2023-09-19T12:00:54;16;16;
64114;PMS5003;62188;35.640;139.748;2023-09-19T12:03:14;18;18;
64114;PMS5003;62188;35.640;139.748;2023-09-19T12:05:40;16;15;
64114;PMS5003;62188;35.640;139.748;2023-09-19T12:08:05;17;17;
64114;PMS5003;62188;35.640;139.748;2023-09-19T12:10:30;16;15;
64114;PMS5003;62188;35.640;139.748;2023-09-19T12:12:55;16;16;
64114;PMS5003;62188;35.640;139.748;2023-09-19T12:15:24;22;21;
64114;PMS5003;62188;35.640;139.748;2023-09-19T12:17:47;16;15;
64114;PMS5003;62188;35.640;139.748;2023-09-19T12:20:12;14;12;
64114;PMS5003;62188;35.640;139.748;2023-09-19T12:22:39;18;17;
64114;PMS5003;62188;35.640;139.748;2023-09-19T12:25:06;14;13;
64114;PMS5003;62188;35.640;139.748;2023-09-19T12:27:28;17;17;
64114;PMS5003;62188;35.640;139.748;2023-09-19T12:29:53;19;18;
64114;PMS5003;62188;35.640;139.748;2023-09-19T12:32:19;18;18;
64114;PMS5003;62188;35.640;139.748;2023-09-19T12:34:49;16;16;
64114;PMS5003;62188;35.640;139.748;2023-09-19T12:37:10;16;15;
64114;PMS5003;62188;35.640;139.748;2023-09-19T12:39:34;16;15;
64114;PMS5003;62188;35.640;139.748;2023-09-19T12:42:00;20;18;
64114;PMS5003;62188;35.640;139.748;2023-09-19T12:44:25;17;16;
64114;PMS5003;62188;35.640;139.748;2023-09-19T12:46:51;15;15;
64114;PMS5003;62188;35.640;139.748;2023-09-19T12:49:16;17;16;
64114;PMS5003;62188;35.640;139.748;2023-09-19T12:51:42;17;16;
64114;PMS5003;62188;35.640;139.748;2023-09-19T12:54:07;15;14;
64114;PMS5003;62188;35.640;139.748;2023-09-19T12:58:58;19;18;
64114;PMS5003;62188;35.640;139.748;2023-09-19T13:01:23;16;16;
64114;PMS5003;62188;35.640;139.748;2023-09-19T13:06:13;18;16;
64114;PMS5003;62188;35.640;139.748;2023-09-19T13:08:40;16;16;
64114;PMS5003;62188;35.640;139.748;2023-09-19T13:11:09;17;17;
64114;PMS5003;62188;35.640;139.748;2023-09-19T13:13:30;18;17;
64114;PMS5003;62188;35.640;139.748;2023-09-19T13:15:56;16;16;
64114;PMS5003;62188;35.640;139.748;2023-09-19T13:18:21;16;15;
64114;PMS5003;62188;35.640;139.748;2023-09-19T13:25:38;17;14;
64114;PMS5003;62188;35.640;139.748;2023-09-19T13:28:04;14;14;
64114;PMS5003;62188;35.640;139.748;2023-09-19T13:30:28;13;13;
64114;PMS5003;62188;35.640;139.748;2023-09-19T13:33:04;16;16;
64114;PMS5003;62188;35.640;139.748;2023-09-19T13:35:19;14;14;
64114;PMS5003;62188;35.640;139.748;2023-09-19T13:37:44;15;15;
64114;PMS5003;62188;35.640;139.748;2023-09-19T13:40:09;16;16;
64114;PMS5003;62188;35.640;139.748;2023-09-19T13:42:34;16;15;
64114;PMS5003;62188;35.640;139.748;2023-09-19T13:45:00;16;15;
64114;PMS5003;62188;35.640;139.748;2023-09-19T13:47:26;17;16;
64114;PMS5003;62188;35.640;139.748;2023-09-19T13:49:51;15;15;
64114;PMS5003;62188;35.640;139.748;2023-09-19T13:52:16;18;17;
64114;PMS5003;62188;35.640;139.748;2023-09-19T13:54:42;17;17;
64114;PMS5003;62188;35.640;139.748;2023-09-19T13:57:07;16;15;
64114;PMS5003;62188;35.640;139.748;2023-09-19T13:59:33;15;15;
64114;PMS5003;62188;35.640;139.748;2023-09-19T14:01:58;16;16;
64114;PMS5003;62188;35.640;139.748;2023-09-19T14:04:24;16;16;
64114;PMS5003;62188;35.640;139.748;2023-09-19T14:06:49;18;16;
64114;PMS5003;62188;35.640;139.748;2023-09-19T14:09:14;19;17;
64114;PMS5003;62188;35.640;139.748;2023-09-19T14:11:40;18;18;
64114;PMS5003;62188;35.640;139.748;2023-09-19T14:14:05;18;17;
64114;PMS5003;62188;35.640;139.748;2023-09-19T14:16:30;17;16;
64114;PMS5003;62188;35.640;139.748;2023-09-19T14:18:55;19;19;
64114;PMS5003;62188;35.640;139.748;2023-09-19T14:21:21;17;17;
64114;PMS5003;62188;35.640;139.748;2023-09-19T14:23:47;13;13;
64114;PMS5003;62188;35.640;139.748;2023-09-19T14:26:12;14;13;
64114;PMS5003;62188;35.640;139.748;2023-09-19T14:28:37;15;14;
64114;PMS5003;62188;35.640;139.748;2023-09-19T14:31:05;15;15;
64114;PMS5003;62188;35.640;139.748;2023-09-19T14:33:29;19;18;
64114;PMS5003;62188;35.640;139.748;2023-09-19T14:35:53;16;15;
64114;PMS5003;62188;35.640;139.748;2023-09-19T14:38:19;14;14;
64114;PMS5003;62188;35.640;139.748;2023-09-19T14:40:44;16;16;
64114;PMS5003;62188;35.640;139.748;2023-09-19T14:43:10;15;14;
64114;PMS5003;62188;35.640;139.748;2023-09-19T14:45:36;16;16;
64114;PMS5003;62188;35.640;139.748;2023-09-19T14:48:01;16;16;
64114;PMS5003;62188;35.640;139.748;2023-09-19T14:50:27;17;15;
64114;PMS5003;62188;35.640;139.748;2023-09-19T14:52:51;17;16;
64114;PMS5003;62188;35.640;139.748;2023-09-19T14:55:17;19;17;
64114;PMS5003;62188;35.640;139.748;2023-09-19T14:57:42;19;18;
64114;PMS5003;62188;35.640;139.748;2023-09-19T15:00:07;16;16;
64114;PMS5003;62188;35.640;139.748;2023-09-19T15:02:33;19;17;
64114;PMS5003;62188;35.640;139.748;2023-09-19T15:04:58;19;19;
64114;PMS5003;62188;35.640;139.748;2023-09-19T15:07:24;20;20;
64114;PMS5003;62188;35.640;139.748;2023-09-19T15:09:49;17;17;
64114;PMS5003;62188;35.640;139.748;2023-09-19T15:12:15;19;18;
64114;PMS5003;62188;35.640;139.748;2023-09-19T15:14:41;20;19;
64114;PMS5003;62188;35.640;139.748;2023-09-19T15:17:06;23;23;
64114;PMS5003;62188;35.640;139.748;2023-09-19T15:19:31;19;19;
64114;PMS5003;62188;35.640;139.748;2023-09-19T15:21:57;20;20;
64114;PMS5003;62188;35.640;139.748;2023-09-19T15:24:22;21;21;
64114;PMS5003;62188;35.640;139.748;2023-09-19T15:26:47;23;22;
64114;PMS5003;62188;35.640;139.748;2023-09-19T15:29:13;21;19;
64114;PMS5003;62188;35.640;139.748;2023-09-19T15:31:38;21;20;
64114;PMS5003;62188;35.640;139.748;2023-09-19T15:34:04;21;20;
64114;PMS5003;62188;35.640;139.748;2023-09-19T15:36:29;22;22;
64114;PMS5003;62188;35.640;139.748;2023-09-19T15:38:56;24;23;
64114;PMS5003;62188;35.640;139.748;2023-09-19T15:41:20;22;22;
64114;PMS5003;62188;35.640;139.748;2023-09-19T15:43:45;23;22;
64114;PMS5003;62188;35.640;139.748;2023-09-19T15:46:11;21;20;
64114;PMS5003;62188;35.640;139.748;2023-09-19T15:48:36;20;20;
64114;PMS5003;62188;35.640;139.748;2023-09-19T15:51:03;20;19;
64114;PMS5003;62188;35.640;139.748;2023-09-19T15:53:26;17;17;
64114;PMS5003;62188;35.640;139.748;2023-09-19T15:55:52;20;19;
64114;PMS5003;62188;35.640;139.748;2023-09-19T15:58:17;17;17;
64114;PMS5003;62188;35.640;139.748;2023-09-19T16:00:43;21;21;
64114;PMS5003;62188;35.640;139.748;2023-09-19T16:03:09;21;20;
64114;PMS5003;62188;35.640;139.748;2023-09-19T16:05:36;21;20;
64114;PMS5003;62188;35.640;139.748;2023-09-19T16:07:59;23;22;
64114;PMS5003;62188;35.640;139.748;2023-09-19T16:10:25;20;20;
64114;PMS5003;62188;35.640;139.748;2023-09-19T16:12:50;20;20;
64114;PMS5003;62188;35.640;139.748;2023-09-19T16:15:16;20;20;
64114;PMS5003;62188;35.640;139.748;2023-09-19T16:17:41;19;19;
64114;PMS5003;62188;35.640;139.748;2023-09-19T16:20:07;22;22;
64114;PMS5003;62188;35.640;139.748;2023-09-19T16:22:32;18;18;
64114;PMS5003;62188;35.640;139.748;2023-09-19T16:24:57;17;17;
64114;PMS5003;62188;35.640;139.748;2023-09-19T16:27:22;22;21;
64114;PMS5003;62188;35.640;139.748;2023-09-19T16:29:48;21;21;
64114;PMS5003;62188;35.640;139.748;2023-09-19T16:32:13;20;18;